Terminal Aerodrome Forecast
Issued by NWS

Home | Current Version | Previous Version | Text Only | Print | Product List | Glossary On
Versions: 1 2 3 4 5 6 7 8 9 10 11 12 13 14
000
FTAK31 PANC 011140
TAFAHO
TAF
PAHO 011140Z 0112/0212 05006KT P6SM VCSH BKN035 OVC060
     FM011600 05006KT P6SM -RA SCT025 OVC035
     FM020600 05004KT P6SM -SHRA BKN025 OVC035=

USA.gov is the U.S. government's official web portal to all federal, state and local government web resources and services.